createdAt,value
2024-05-09T00:02:24.766Z,19.65
2024-05-09T00:04:54.934Z,18.15
2024-05-09T00:07:25.026Z,18.05
2024-05-09T00:09:54.984Z,18.25
2024-05-09T00:12:25.080Z,18.70
2024-05-09T00:14:57.767Z,18.17
2024-05-09T00:17:27.895Z,18.42
2024-05-09T00:19:57.961Z,19.40
2024-05-09T00:22:27.962Z,18.95
2024-05-09T00:24:57.926Z,18.38
2024-05-09T00:27:28.466Z,18.27
2024-05-09T00:30:01.134Z,20.40
2024-05-09T00:32:31.353Z,17.33
2024-05-09T00:35:01.558Z,19.10
2024-05-09T00:37:31.583Z,16.58
2024-05-09T00:40:01.544Z,17.00
2024-05-09T00:42:31.523Z,19.20
2024-05-09T00:45:04.115Z,14.65
2024-05-09T00:47:34.416Z,16.50
2024-05-09T00:50:09.805Z,15.88
2024-05-09T00:52:43.271Z,13.35
2024-05-09T00:55:13.385Z,17.43
2024-05-09T00:57:43.815Z,16.50
2024-05-09T01:00:26.122Z,14.52
2024-05-09T01:03:01.153Z,14.75
2024-05-09T01:05:32.209Z,13.95
2024-05-09T01:08:02.444Z,13.10
2024-05-09T01:10:35.165Z,15.55
2024-05-09T01:13:07.067Z,15.65
2024-05-09T01:15:40.062Z,15.25
2024-05-09T01:18:13.470Z,15.50
2024-05-09T01:20:45.438Z,15.82
2024-05-09T01:23:18.355Z,17.50
2024-05-09T01:25:48.671Z,14.52
2024-05-09T01:28:18.651Z,13.55
2024-05-09T01:30:48.607Z,15.38
2024-05-09T01:33:18.747Z,16.30
2024-05-09T01:35:48.809Z,15.73
2024-05-09T01:38:21.439Z,14.45
2024-05-09T01:40:52.419Z,14.07
2024-05-09T01:43:22.382Z,14.13
2024-05-09T01:45:52.350Z,13.23
2024-05-09T01:48:22.515Z,14.25
2024-05-09T01:50:52.676Z,15.48
2024-05-09T01:53:25.444Z,15.25
2024-05-09T01:55:55.516Z,13.00
2024-05-09T01:58:25.526Z,15.30
2024-05-09T02:00:55.719Z,13.60
2024-05-09T02:03:25.879Z,15.32
2024-05-09T02:05:55.994Z,13.75
2024-05-09T02:08:28.757Z,15.10
2024-05-09T02:10:58.952Z,12.60
2024-05-09T02:13:28.985Z,12.98
2024-05-09T02:15:59.244Z,11.88
2024-05-09T02:18:29.302Z,12.15
2024-05-09T02:20:59.335Z,14.05
2024-05-09T02:23:32.037Z,12.85
2024-05-09T02:26:02.027Z,13.82
2024-05-09T02:28:32.035Z,16.25
2024-05-09T02:31:02.063Z,13.30
2024-05-09T02:33:32.180Z,13.20
2024-05-09T02:36:02.221Z,14.02
2024-05-09T02:38:32.337Z,13.63
2024-05-09T02:41:02.442Z,13.00
2024-05-09T02:43:29.774Z,12.95
2024-05-09T02:45:59.730Z,12.60
2024-05-09T02:48:27.202Z,13.85
2024-05-09T02:50:57.285Z,13.02
2024-05-09T02:53:24.720Z,11.48
2024-05-09T02:55:57.497Z,14.13
2024-05-09T02:58:27.490Z,11.95
2024-05-09T03:00:54.948Z,11.27
2024-05-09T03:03:26.389Z,16.23
2024-05-09T03:05:54.013Z,14.43
2024-05-09T03:08:24.070Z,10.88
2024-05-09T03:10:54.097Z,13.13
2024-05-09T03:13:24.326Z,11.73
2024-05-09T03:15:51.774Z,12.35
2024-05-09T03:18:21.888Z,14.55
2024-05-09T03:20:49.427Z,12.85
2024-05-09T03:23:19.599Z,11.65
2024-05-09T03:25:46.965Z,13.38
2024-05-09T03:28:19.603Z,11.55
2024-05-09T03:30:46.928Z,12.48
2024-05-09T03:33:19.382Z,13.15
2024-05-09T03:35:48.872Z,13.23
2024-05-09T03:38:19.433Z,14.82
2024-05-09T03:40:50.539Z,11.98
2024-05-09T03:45:50.803Z,12.40
2024-05-09T03:48:21.231Z,12.75
2024-05-09T03:50:49.023Z,14.20
2024-05-09T03:53:19.238Z,13.27
2024-05-09T03:55:46.721Z,13.25
2024-05-09T03:58:16.772Z,14.80
2024-05-09T04:00:46.893Z,13.02
2024-05-09T04:03:17.389Z,11.68
2024-05-09T04:05:45.091Z,12.40
2024-05-09T04:08:15.773Z,14.05
2024-05-09T04:10:43.524Z,14.98
2024-05-09T04:13:13.670Z,13.35
2024-05-09T04:15:41.017Z,14.82
2024-05-09T04:18:13.621Z,15.75
2024-05-09T04:20:41.586Z,14.75
2024-05-09T04:23:15.054Z,12.20
2024-05-09T04:25:43.705Z,12.50
2024-05-09T04:28:13.832Z,13.82
2024-05-09T04:30:47.126Z,10.30
2024-05-09T04:33:20.857Z,10.90
2024-05-09T04:35:49.595Z,11.45
2024-05-09T04:38:19.712Z,12.77
2024-05-09T04:40:47.162Z,12.23
2024-05-09T04:43:19.634Z,13.20
2024-05-09T04:45:47.309Z,11.73
2024-05-09T04:48:20.108Z,10.43
2024-05-09T04:50:47.598Z,11.40
2024-05-09T04:53:18.989Z,10.95
2024-05-09T04:55:46.524Z,10.60
2024-05-09T04:58:16.553Z,11.63
2024-05-09T05:00:43.949Z,13.45
2024-05-09T05:03:15.871Z,12.25
2024-05-09T05:05:46.891Z,10.70
2024-05-09T05:08:18.209Z,10.40
2024-05-09T05:10:47.326Z,10.50
2024-05-09T05:13:24.714Z,10.77
2024-05-09T05:15:56.522Z,10.13
2024-05-09T05:18:28.549Z,9.32
2024-05-09T05:20:58.855Z,9.82
2024-05-09T05:23:28.950Z,10.52
2024-05-09T05:25:56.408Z,9.77
2024-05-09T05:28:26.516Z,10.07
2024-05-09T05:30:53.906Z,10.52
2024-05-09T05:33:24.671Z,13.00
2024-05-09T05:35:52.112Z,10.75
2024-05-09T05:38:27.511Z,10.27
2024-05-09T05:40:55.951Z,11.35
2024-05-09T05:43:26.060Z,11.90
2024-05-09T05:45:53.408Z,11.05
2024-05-09T05:48:23.627Z,9.88
2024-05-09T05:50:51.103Z,8.75
2024-05-09T05:53:21.212Z,8.65
2024-05-09T05:55:51.248Z,9.95
2024-05-09T05:58:21.681Z,10.50
2024-05-09T06:00:49.091Z,9.18
2024-05-09T06:03:19.102Z,9.80
2024-05-09T06:05:46.941Z,10.27
2024-05-09T06:08:17.379Z,9.80
2024-05-09T06:10:45.082Z,9.73
2024-05-09T06:13:18.292Z,11.23
2024-05-09T06:15:45.627Z,7.53
2024-05-09T06:18:17.008Z,5.78
2024-05-09T06:20:44.699Z,7.05
2024-05-09T06:23:15.318Z,5.40
2024-05-09T06:25:44.086Z,5.90
2024-05-09T06:28:14.222Z,5.60
2024-05-09T06:30:44.182Z,4.60
2024-05-09T06:33:16.368Z,4.68
2024-05-09T06:35:44.732Z,4.53
2024-05-09T06:38:15.089Z,4.18
2024-05-09T06:40:43.877Z,4.15
2024-05-09T06:43:17.354Z,5.45
2024-05-09T06:45:49.869Z,4.35
2024-05-09T06:48:21.849Z,5.68
2024-05-09T06:50:50.749Z,4.80
2024-05-09T06:53:24.177Z,4.32
2024-05-09T06:55:51.781Z,5.65
2024-05-09T06:58:21.823Z,5.18
2024-05-09T07:00:51.965Z,4.53
2024-05-09T07:03:22.168Z,4.15
2024-05-09T07:05:50.060Z,4.75
2024-05-09T07:08:20.327Z,4.35
2024-05-09T07:10:47.996Z,4.88
2024-05-09T07:13:18.497Z,4.20
2024-05-09T07:15:45.830Z,3.40
2024-05-09T07:18:20.365Z,4.55
2024-05-09T07:20:49.398Z,5.38
2024-05-09T07:23:20.699Z,5.03
2024-05-09T07:25:48.346Z,5.78
2024-05-09T07:28:19.660Z,6.57
2024-05-09T07:33:24.047Z,5.95
2024-05-09T07:35:54.754Z,5.53
2024-05-09T07:38:22.224Z,5.55
2024-05-09T07:40:52.491Z,6.70
2024-05-09T07:43:19.952Z,5.25
2024-05-09T07:45:54.087Z,4.32
2024-05-09T07:50:00.233Z,5.60
2024-05-09T07:53:51.025Z,3.80
2024-05-09T07:56:24.416Z,4.60
2024-05-09T07:58:53.510Z,3.42
2024-05-09T08:01:25.870Z,3.20
2024-05-09T08:03:56.488Z,3.20
2024-05-09T08:06:27.398Z,3.63
2024-05-09T08:08:54.835Z,4.18
2024-05-09T08:11:24.866Z,6.13
2024-05-09T08:13:52.294Z,5.40
2024-05-09T08:16:22.555Z,6.13
2024-05-09T08:18:50.211Z,6.87
2024-05-09T08:21:22.913Z,6.78
2024-05-09T08:23:50.349Z,7.95
2024-05-09T08:26:20.285Z,6.50
2024-05-09T08:28:47.689Z,6.10
2024-05-09T08:31:18.070Z,5.57
2024-05-09T08:33:47.668Z,5.50
2024-05-09T08:36:18.084Z,6.05
2024-05-09T08:38:48.063Z,5.78
2024-05-09T08:41:18.304Z,4.53
2024-05-09T08:43:47.070Z,5.78
2024-05-09T08:46:18.871Z,4.80
2024-05-09T08:48:48.314Z,4.20
2024-05-09T08:51:18.537Z,4.20
2024-05-09T08:53:48.610Z,3.97
2024-05-09T08:56:20.002Z,5.45
2024-05-09T08:58:49.759Z,3.53
2024-05-09T09:01:21.822Z,4.05
2024-05-09T09:03:53.603Z,3.95
2024-05-09T09:06:25.140Z,4.80
2024-05-09T09:08:55.632Z,4.60
2024-05-09T09:11:25.910Z,3.97
2024-05-09T09:13:53.222Z,3.67
2024-05-09T09:16:23.518Z,3.35
2024-05-09T09:18:53.608Z,3.08
2024-05-09T09:21:23.625Z,2.60
2024-05-09T09:23:50.933Z,4.45
2024-05-09T09:26:23.546Z,3.28
2024-05-09T09:28:51.030Z,3.38
2024-05-09T09:31:21.835Z,3.08
2024-05-09T09:36:19.775Z,3.33
2024-05-09T09:38:47.900Z,5.17
2024-05-09T09:41:25.142Z,4.28
2024-05-09T09:43:53.746Z,3.35
2024-05-09T09:46:24.727Z,3.45
2024-05-09T09:48:53.166Z,3.58
2024-05-09T09:51:24.302Z,3.15
2024-05-09T09:53:53.504Z,3.58
2024-05-09T09:56:26.694Z,3.63
2024-05-09T09:58:56.650Z,4.25
2024-05-09T10:01:26.683Z,4.43
2024-05-09T10:03:54.407Z,4.10
2024-05-09T10:06:25.758Z,4.97
2024-05-09T10:08:54.175Z,4.13
2024-05-09T10:11:27.413Z,4.35
2024-05-09T10:13:56.987Z,4.22
2024-05-09T10:16:27.621Z,5.75
2024-05-09T10:18:55.336Z,4.03
2024-05-09T10:21:25.587Z,3.70
2024-05-09T10:24:00.027Z,4.70
2024-05-09T10:26:36.660Z,3.95
2024-05-09T10:29:12.465Z,4.85
2024-05-09T10:31:45.009Z,4.13
2024-05-09T10:34:22.884Z,3.50
2024-05-09T10:36:56.583Z,4.15
2024-05-09T10:39:25.630Z,3.72
2024-05-09T10:41:58.265Z,3.78
2024-05-09T10:44:25.653Z,4.18
2024-05-09T10:46:56.404Z,3.60
2024-05-09T10:49:23.896Z,3.15
2024-05-09T10:51:55.973Z,3.17
2024-05-09T10:54:23.325Z,3.22
2024-05-09T10:57:01.747Z,3.25
2024-05-09T10:59:33.937Z,3.03
2024-05-09T11:02:07.890Z,3.40
2024-05-09T11:04:36.960Z,3.00
2024-05-09T11:07:11.366Z,3.00
2024-05-09T11:09:39.975Z,3.28
2024-05-09T11:12:13.131Z,2.83
2024-05-09T11:14:40.560Z,2.95
2024-05-09T11:17:11.099Z,2.92
2024-05-09T11:19:40.022Z,2.45
2024-05-09T11:22:12.599Z,2.80
2024-05-09T11:24:40.636Z,2.80
2024-05-09T11:27:13.249Z,4.85
2024-05-09T11:29:42.370Z,3.10
2024-05-09T11:32:16.441Z,3.08
2024-05-09T11:34:43.963Z,3.17
2024-05-09T11:37:14.542Z,3.22
2024-05-09T11:39:42.003Z,2.88
2024-05-09T11:42:14.671Z,3.00
2024-05-09T11:44:42.011Z,3.50
2024-05-09T11:47:12.076Z,3.13
2024-05-09T11:49:39.496Z,3.30
2024-05-09T11:52:09.677Z,3.22
2024-05-09T11:54:37.244Z,3.08
2024-05-09T11:57:07.614Z,2.63
2024-05-09T11:59:37.702Z,3.08
2024-05-09T12:02:08.053Z,3.07
2024-05-09T12:04:35.679Z,3.15
2024-05-09T12:07:06.245Z,2.78
2024-05-09T12:09:34.468Z,2.42
2024-05-09T12:12:04.605Z,3.20
2024-05-09T12:14:32.061Z,2.63
2024-05-09T12:17:05.724Z,3.05
2024-05-09T12:19:33.299Z,2.38
2024-05-09T12:22:03.470Z,2.65
2024-05-09T12:24:31.036Z,2.50
2024-05-09T12:27:01.239Z,2.45
2024-05-09T12:29:28.637Z,1.90
2024-05-09T12:31:58.728Z,2.22
2024-05-09T12:34:28.927Z,2.63
2024-05-09T12:36:58.996Z,2.77
2024-05-09T12:39:26.394Z,3.22
2024-05-09T12:41:56.345Z,2.08
2024-05-09T12:44:23.761Z,1.80
2024-05-09T12:46:54.008Z,2.33
2024-05-09T12:49:24.431Z,1.57
2024-05-09T12:51:57.242Z,2.25
2024-05-09T12:54:24.619Z,2.08
2024-05-09T12:56:54.711Z,1.90
2024-05-09T12:59:22.050Z,3.47
2024-05-09T13:01:52.142Z,2.58
2024-05-09T13:04:19.754Z,1.87
2024-05-09T13:06:50.067Z,2.45
2024-05-09T13:09:20.114Z,2.60
2024-05-09T13:11:50.260Z,3.70
2024-05-09T13:14:17.721Z,2.10
2024-05-09T13:16:47.853Z,1.80
2024-05-09T13:19:15.344Z,2.10
2024-05-09T13:21:45.375Z,2.70
2024-05-09T13:24:12.837Z,2.25
2024-05-09T13:26:45.569Z,2.03
2024-05-09T13:29:12.984Z,2.13
2024-05-09T13:31:45.865Z,2.15
2024-05-09T13:34:13.483Z,1.55
2024-05-09T13:36:43.968Z,1.67
2024-05-09T13:39:11.594Z,1.30
2024-05-09T13:41:44.478Z,1.60
2024-05-09T13:44:12.195Z,1.77
2024-05-09T13:46:45.394Z,2.92
2024-05-09T13:49:16.913Z,3.83
2024-05-09T13:51:47.271Z,3.35
2024-05-09T13:54:16.672Z,2.95
2024-05-09T13:56:49.991Z,4.40
2024-05-09T13:59:17.413Z,2.80
2024-05-09T14:01:47.537Z,2.42
2024-05-09T14:04:15.122Z,1.60
2024-05-09T14:06:45.564Z,1.88
2024-05-09T14:09:13.031Z,3.73
2024-05-09T14:11:43.069Z,2.42
2024-05-09T14:14:13.125Z,3.38
2024-05-09T14:16:44.696Z,4.35
2024-05-09T14:19:12.353Z,4.15
2024-05-09T14:21:42.548Z,3.45
2024-05-09T14:24:09.891Z,3.03
2024-05-09T14:26:40.113Z,4.65
2024-05-09T14:29:07.785Z,2.75
2024-05-09T14:31:40.472Z,2.45
2024-05-09T14:34:07.997Z,2.28
2024-05-09T14:36:38.136Z,3.00
2024-05-09T14:39:05.539Z,3.53
2024-05-09T14:41:35.689Z,2.00
2024-05-09T14:44:03.140Z,2.47
2024-05-09T14:46:33.147Z,2.85
2024-05-09T14:49:03.300Z,2.78
2024-05-09T14:51:33.378Z,2.45
2024-05-09T14:54:00.820Z,2.13
2024-05-09T14:56:30.844Z,2.20
2024-05-09T14:58:58.175Z,2.63
2024-05-09T15:01:28.336Z,7.22
2024-05-09T15:03:57.336Z,2.83
2024-05-09T15:06:30.065Z,2.70
2024-05-09T15:08:57.745Z,3.00
2024-05-09T15:11:27.967Z,3.20
2024-05-09T15:13:55.299Z,3.45
2024-05-09T15:16:25.414Z,4.78
2024-05-09T15:18:53.216Z,3.47
2024-05-09T15:21:23.819Z,2.58
2024-05-09T15:23:53.869Z,2.90
2024-05-09T15:26:24.076Z,3.80
2024-05-09T15:28:51.419Z,2.72
2024-05-09T15:31:21.441Z,2.28
2024-05-09T15:33:48.824Z,5.40
2024-05-09T15:36:18.971Z,2.17
2024-05-09T15:38:46.560Z,3.10
2024-05-09T15:41:19.190Z,3.33
2024-05-09T15:43:46.500Z,2.60
2024-05-09T15:46:16.603Z,4.65
2024-05-09T15:48:44.812Z,3.35
2024-05-09T15:51:15.015Z,2.38
2024-05-09T15:53:42.331Z,2.35
2024-05-09T15:56:13.006Z,3.03
2024-05-09T15:58:43.459Z,2.67
2024-05-09T16:01:15.110Z,2.53
2024-05-09T16:03:42.664Z,2.63
2024-05-09T16:06:13.294Z,3.45
2024-05-09T16:08:40.643Z,2.78
2024-05-09T16:11:10.708Z,3.35
2024-05-09T16:13:38.331Z,2.70
2024-05-09T16:16:11.779Z,4.97
2024-05-09T16:18:39.313Z,2.85
2024-05-09T16:21:09.445Z,3.40
2024-05-09T16:23:39.873Z,3.90
2024-05-09T16:26:10.413Z,2.97
2024-05-09T16:28:37.952Z,4.07
2024-05-09T16:31:10.776Z,2.65
2024-05-09T16:33:40.423Z,3.95
2024-05-09T16:36:10.826Z,3.38
2024-05-09T16:38:40.120Z,3.95
2024-05-09T16:41:10.064Z,3.60
2024-05-09T16:43:37.402Z,5.40
2024-05-09T16:46:10.385Z,6.40
2024-05-09T16:48:40.814Z,2.85
2024-05-09T16:51:10.877Z,5.23
2024-05-09T16:53:38.794Z,6.05
2024-05-09T16:56:09.764Z,4.25
2024-05-09T16:58:37.172Z,3.10
2024-05-09T17:01:07.628Z,5.22
2024-05-09T17:03:37.824Z,5.47
2024-05-09T17:06:08.327Z,4.53
2024-05-09T17:08:37.696Z,4.83
2024-05-09T17:11:08.118Z,3.53
2024-05-09T17:13:39.407Z,4.43
2024-05-09T17:16:12.535Z,4.05
2024-05-09T17:18:46.262Z,4.10
2024-05-09T17:21:16.377Z,3.88
2024-05-09T17:23:43.723Z,4.22
2024-05-09T17:26:14.016Z,6.80
2024-05-09T17:28:41.371Z,3.40
2024-05-09T17:31:11.419Z,4.57
2024-05-09T17:33:42.791Z,5.13
2024-05-09T17:38:40.753Z,4.13
2024-05-09T17:41:10.804Z,3.38
2024-05-09T17:43:38.211Z,5.85
2024-05-09T17:46:08.465Z,3.22
2024-05-09T17:48:36.151Z,4.45
2024-05-09T17:51:09.742Z,4.40
2024-05-09T17:53:37.270Z,5.53
2024-05-09T17:56:07.650Z,3.47
2024-05-09T17:58:35.422Z,3.72
2024-05-09T18:01:05.581Z,5.05
2024-05-09T18:03:33.320Z,5.28
2024-05-09T18:06:03.553Z,5.60
2024-05-09T18:08:33.551Z,4.50
2024-05-09T18:11:03.556Z,3.88
2024-05-09T18:13:30.982Z,4.38
2024-05-09T18:16:01.132Z,3.67
2024-05-09T18:18:28.655Z,3.80
2024-05-09T18:20:58.628Z,4.63
2024-05-09T18:23:26.030Z,4.90
2024-05-09T18:25:58.870Z,4.38
2024-05-09T18:28:26.414Z,3.58
2024-05-09T18:30:56.670Z,4.55
2024-05-09T18:33:24.924Z,4.85
2024-05-09T18:35:55.144Z,3.83
2024-05-09T18:38:26.833Z,5.22
2024-05-09T18:40:59.658Z,5.45
2024-05-09T18:43:31.673Z,5.55
2024-05-09T18:46:08.536Z,5.65
2024-05-09T18:48:36.133Z,5.20
2024-05-09T18:51:06.332Z,5.35
2024-05-09T18:53:33.720Z,6.03
2024-05-09T18:56:06.572Z,4.95
2024-05-09T18:58:33.985Z,4.65
2024-05-09T19:01:04.497Z,5.63
2024-05-09T19:03:32.331Z,6.85
2024-05-09T19:06:02.728Z,4.95
2024-05-09T19:08:30.166Z,7.95
2024-05-09T19:11:02.111Z,5.05
2024-05-09T19:13:32.222Z,5.82
2024-05-09T19:16:02.296Z,5.45
2024-05-09T19:18:30.910Z,5.63
2024-05-09T19:21:01.008Z,4.60
2024-05-09T19:23:29.007Z,7.20
2024-05-09T19:25:59.389Z,5.57
2024-05-09T19:28:26.809Z,8.18
2024-05-09T19:30:59.471Z,7.20
2024-05-09T19:33:26.886Z,5.78
2024-05-09T19:35:56.935Z,6.63
2024-05-09T19:38:24.376Z,6.65
2024-05-09T19:40:54.573Z,5.97
2024-05-09T19:43:22.176Z,6.32
2024-05-09T19:45:52.392Z,8.38
2024-05-09T19:48:25.177Z,7.93
2024-05-09T19:50:53.286Z,8.82
2024-05-09T19:53:23.598Z,8.07
2024-05-09T19:55:51.041Z,10.95
2024-05-09T19:58:21.075Z,9.32
2024-05-09T20:00:48.801Z,10.63
2024-05-09T20:03:19.266Z,9.70
2024-05-09T20:05:49.435Z,8.93
2024-05-09T20:08:19.627Z,8.73
2024-05-09T20:10:47.186Z,8.75
2024-05-09T20:13:17.275Z,10.70
2024-05-09T20:15:44.829Z,9.85
2024-05-09T20:18:15.036Z,7.50
2024-05-09T20:20:44.613Z,8.35
2024-05-09T20:23:18.120Z,8.85
2024-05-09T20:25:45.480Z,7.65
2024-05-09T20:28:15.549Z,8.23
2024-05-09T20:30:43.060Z,8.15
2024-05-09T20:33:14.279Z,8.77
2024-05-09T20:35:41.805Z,9.02
2024-05-09T20:38:11.771Z,7.57
2024-05-09T20:40:41.996Z,6.75
2024-05-09T20:43:12.223Z,9.25
2024-05-09T20:45:40.283Z,6.45
2024-05-09T20:48:12.034Z,7.63
2024-05-09T20:53:14.655Z,8.35
2024-05-09T20:55:45.679Z,9.95
2024-05-09T20:58:16.097Z,7.63
2024-05-09T21:00:45.729Z,8.75
2024-05-09T21:03:17.896Z,7.65
2024-05-09T21:05:46.045Z,7.63
2024-05-09T21:08:16.367Z,7.85
2024-05-09T21:10:46.433Z,8.25
2024-05-09T21:13:16.527Z,8.30
2024-05-09T21:15:43.991Z,8.40
2024-05-09T21:18:14.215Z,7.57
2024-05-09T21:20:41.776Z,8.90
2024-05-09T21:23:11.778Z,10.23
2024-05-09T21:25:39.097Z,11.30
2024-05-09T21:28:11.961Z,7.85
2024-05-09T21:30:42.454Z,8.88
2024-05-09T21:33:15.014Z,8.45
2024-05-09T21:35:43.836Z,9.75
2024-05-09T21:38:14.765Z,6.32
2024-05-09T21:40:42.782Z,8.07
2024-05-09T21:43:15.626Z,7.97
2024-05-09T21:45:44.036Z,8.20
2024-05-09T21:48:15.840Z,6.43
2024-05-09T21:50:43.309Z,7.30
2024-05-09T21:53:14.000Z,7.05
2024-05-09T21:55:41.819Z,9.05
2024-05-09T21:58:11.944Z,6.75
2024-05-09T22:00:46.460Z,7.57
2024-05-09T22:03:14.564Z,6.75
2024-05-09T22:05:45.182Z,6.63
2024-05-09T22:08:13.278Z,7.45
2024-05-09T22:10:43.651Z,7.00
2024-05-09T22:13:11.123Z,7.20
2024-05-09T22:15:44.657Z,7.95
2024-05-09T22:18:12.243Z,7.97
2024-05-09T22:20:45.426Z,6.20
2024-05-09T22:23:14.908Z,8.00
2024-05-09T22:25:45.153Z,6.72
2024-05-09T22:28:15.367Z,6.55
2024-05-09T22:30:48.400Z,6.85
2024-05-09T22:33:16.077Z,7.75
2024-05-09T22:35:47.595Z,6.70
2024-05-09T22:38:15.001Z,6.88
2024-05-09T22:40:48.561Z,7.15
2024-05-09T22:43:19.542Z,10.48
2024-05-09T22:45:52.774Z,10.10
2024-05-09T22:48:20.702Z,8.63
2024-05-09T22:50:50.784Z,6.75
2024-05-09T22:53:18.626Z,7.68
2024-05-09T22:55:48.597Z,9.02
2024-05-09T22:58:16.093Z,7.80
2024-05-09T23:00:46.452Z,7.50
2024-05-09T23:03:16.854Z,7.93
2024-05-09T23:05:47.494Z,6.78
2024-05-09T23:08:14.833Z,7.23
2024-05-09T23:10:44.981Z,7.78
2024-05-09T23:13:12.605Z,7.43
2024-05-09T23:15:42.778Z,7.63
2024-05-09T23:18:10.596Z,7.45
2024-05-09T23:20:43.453Z,6.75
2024-05-09T23:23:12.106Z,7.38
2024-05-09T23:25:42.778Z,8.35
2024-05-09T23:28:10.471Z,6.82
2024-05-09T23:30:41.748Z,7.88
2024-05-09T23:33:11.307Z,6.13
2024-05-09T23:35:45.064Z,8.60
2024-05-09T23:38:13.110Z,8.27
2024-05-09T23:40:43.742Z,7.63
2024-05-09T23:43:12.528Z,8.33
2024-05-09T23:45:43.882Z,9.68
2024-05-09T23:48:11.765Z,7.00
2024-05-09T23:50:44.607Z,7.63
2024-05-09T23:53:12.080Z,8.32
2024-05-09T23:55:42.284Z,6.85
2024-05-09T23:58:09.832Z,7.63
